Terminal Aerodrome Forecast
Issued by NWS

Home | Current Version | Previous Version | Text Only | Print | Product List | Glossary On
Versions: 1 2 3 4 5 6 7 8 9 10 11 12 13 14 15 16 17 18 19 20 21 22 23 24 25 26
414
FTUS45 KPIH 171121
TAFSUN
TAF
KSUN 171121Z 1712/1818 18010KT P6SM VCSH SCT025 BKN080
     FM171600 25015KT P6SM SCT025 SCT090
     FM172100 25015G25KT P6SM FEW050 FEW130
     FM180200 VRB04KT P6SM SCT100 SCT180
     FM181500 14006KT P6SM BKN100
     AMD LTD TO CLD VIS AND WIND TIL 171300=

USA.gov is the U.S. government's official web portal to all federal, state and local government web resources and services.